Latest Weather Observations for Kingaroy

IDQ60901

Issued at 10:45 pm EST Friday 31 October 2014 (issued every 10 minutes, with the page automatically refreshed every 10 minutes)

About weather observations | Map of Brisbane area stations | Latest observations for Brisbane area | Other Formats
Station Details ID: 040922 Name: KINGAROY AIRPORT Lat: -26.57 Lon: 151.84 Height: 433.67 m
Data from the previous 72 hours. | See also: Recent months at Kingaroy
Date/Time
EST
Tmp

°C
App
Tmp
°C
Dew
Point
°C
Rel
Hum
%
Delta-T

°C
Wind Press
QNH
hPa
Press
MSL
hPa
Rain
since
9 am
mm
Dir
 
Spd
km/h
Gust
km/h
Spd
kts
Gust
kts
31/10:30pm 20.5 19.8 15.5 73 3.0 NNE 13 19 7 10 1017.4 1015.8 0.0
31/10:00pm 21.2 20.2 15.5 70 3.5 NNE 15 20 8 11 1017.5 1015.9 0.0
31/09:30pm 21.8 21.1 15.4 67 3.9 N 13 22 7 12 1017.2 1015.6 0.0
31/09:00pm 22.4 21.7 15.5 65 4.2 N 13 19 7 10 1016.8 1015.2 0.0
31/08:30pm 23.0 21.6 15.6 63 4.5 NNE 17 28 9 15 1016.4 1014.8 0.0
31/08:00pm 23.9 22.4 15.4 59 5.2 NNE 17 26 9 14 1016.0 1014.5 0.0
31/07:30pm 24.8 22.7 15.1 54 5.9 NNE 20 28 11 15 1015.3 1013.7 0.0
31/07:00pm 25.8 23.1 14.6 50 6.8 NNE 22 39 12 21 1014.7 1013.1 0.0
31/06:30pm 26.7 24.3 14.5 47 7.4 NNE 20 35 11 19 1014.5 1012.9 0.0
31/06:00pm 27.5 24.9 14.8 45 7.8 NNE 22 32 12 17 1014.1 1012.5 0.0
31/05:30pm 28.5 25.6 14.0 41 8.8 NNE 22 32 12 17 1013.5 1011.9 0.0
31/05:00pm 29.4 26.1 12.8 36 10.0 N 22 33 12 18 1013.1 1011.5 0.0
31/04:30pm 30.2 27.6 12.1 32 10.8 NE 17 28 9 15 1013.0 1011.4 0.0
31/04:00pm 31.0 27.8 11.4 30 11.6 NNE 19 28 10 15 1013.1 1011.5 0.0
31/03:30pm 30.8 27.7 11.7 31 11.3 NNE 19 28 10 15 1013.1 1011.5 0.0
31/03:00pm 31.9 29.0 11.1 28 12.3 NNE 17 26 9 14 1013.2 1011.6 0.0
31/02:30pm 30.4 27.5 10.9 30 11.4 NE 17 24 9 13 1013.3 1011.7 0.0
31/02:00pm 32.3 29.2 11.5 28 12.4 NNE 19 32 10 17 1013.8 1012.3 0.0
31/01:30pm 32.1 29.9 13.3 31 11.5 NE 17 28 9 15 1014.3 1012.7 0.0
31/01:00pm 29.4 27.6 13.2 37 9.8 NNE 15 26 8 14 1014.8 1013.2 0.0
31/12:30pm 30.4 29.4 14.5 38 9.8 NE 13 22 7 12 1015.2 1013.6 0.0
31/12:00pm 30.6 29.6 14.7 38 9.9 NE 13 22 7 12 1015.8 1014.3 0.0
31/11:30am 30.3 29.5 15.2 40 9.4 NE 13 22 7 12 1016.4 1014.8 0.0
31/11:00am 29.3 28.2 15.4 42 8.7 N 15 26 8 14 1017.0 1015.4 0.0
31/10:30am 27.6 27.1 14.9 45 7.8 NNE 11 22 6 12 1017.3 1015.7 0.0
31/10:00am 26.8 26.5 14.5 46 7.5 NNE 9 13 5 7 1017.7 1016.2 0.0
31/09:30am 26.7 26.1 15.7 51 6.8 N 13 26 7 14 1018.1 1016.6 0.0
31/09:00am 25.2 24.7 15.8 56 5.8 NNE 13 20 7 11 1018.0 1016.5 0.0
31/08:30am 23.5 22.8 15.5 60 4.9 N 13 20 7 11 1018.2 1016.7 0.0
31/08:00am 22.4 22.0 15.3 64 4.3 N 11 15 6 8 1018.6 1017.1 0.0
31/07:30am 21.6 21.1 15.9 70 3.5 N 13 20 7 11 1018.6 1017.1 0.0
31/07:00am 20.0 19.5 15.8 77 2.5 N 13 15 7 8 1018.6 1017.1 0.0
31/06:30am 19.8 20.1 16.1 79 2.3 NNE 9 11 5 6 1018.2 1016.7 0.0
31/06:00am 18.4 19.6 16.0 86 1.4 ENE 4 9 2 5 1018.1 1016.6 0.0
31/05:30am 16.9 18.3 14.5 86 1.4 NNW 0 0 0 0 1017.9 1016.4 0.0
31/05:00am 17.3 19.1 15.5 89 1.1 CALM 0 0 0 0 1017.6 1016.0 0.0
31/04:30am 17.8 19.5 15.2 85 1.5 CALM 0 6 0 3 1017.1 1015.5 0.0
31/04:00am 18.5 19.1 15.9 85 1.6 N 7 9 4 5 1016.9 1015.3 0.0
31/03:30am 19.3 19.7 16.3 83 1.8 N 9 13 5 7 1016.5 1014.9 0.0
31/03:00am 19.7 20.1 16.3 81 2.1 N 9 13 5 7 1016.2 1014.7 0.0
31/02:30am 20.5 20.4 16.9 80 2.2 N 13 17 7 9 1016.4 1014.8 0.0
31/02:00am 20.6 21.0 17.2 81 2.1 N 11 19 6 10 1016.0 1014.5 0.0
31/01:30am 20.9 21.4 17.5 81 2.1 NNE 11 15 6 8 1016.4 1014.8 0.0
31/01:00am 20.8 20.5 17.4 81 2.1 NNE 15 22 8 12 1016.6 1015.0 0.0
31/12:30am 21.0 21.9 17.6 81 2.1 NE 9 15 5 8 1016.9 1015.3 0.0
31/12:00am 21.2 22.1 17.6 80 2.3 NE 9 15 5 8 1016.9 1015.3 0.0
 
Date/Time
EST
Tmp

°C
App
Tmp
°C
Dew
Point
°C
Rel
Hum
%
Delta-T

°C
Wind Press
QNH
hPa
Press
MSL
hPa
Rain
since
9 am
mm
Dir
 
Spd
km/h
Gust
km/h
Spd
kts
Gust
kts
30/11:30pm 21.1 21.7 17.7 81 2.1 NE 11 17 6 9 1016.9 1015.3 0.0
30/11:00pm 21.5 22.9 17.7 79 2.4 NE 7 17 4 9 1017.4 1015.8 0.0
30/10:30pm 21.5 21.0 17.9 80 2.3 N 17 26 9 14 1017.9 1016.4 0.0
30/10:00pm 21.6 22.6 17.8 79 2.4 NNE 9 15 5 8 1017.8 1016.3 0.0
30/09:30pm 21.6 21.9 17.8 79 2.4 NNE 13 20 7 11 1017.7 1016.2 0.0
30/09:00pm 22.0 22.9 17.6 76 2.8 NE 9 15 5 8 1017.7 1016.2 0.0
30/08:30pm 22.5 23.7 17.4 73 3.2 NE 7 15 4 8 1017.2 1015.6 0.0
30/08:00pm 22.9 23.5 17.8 73 3.2 NE 11 17 6 9 1016.6 1015.0 0.0
30/07:30pm 23.8 24.3 17.5 68 4.0 NE 11 17 6 9 1016.0 1014.5 0.0
30/07:00pm 24.8 24.1 17.3 63 4.7 ENE 17 26 9 14 1014.8 1013.2 0.0
30/06:30pm 26.6 25.6 16.5 54 6.4 NE 17 26 9 14 1014.2 1012.6 0.0
30/06:00pm 28.9 26.8 12.3 36 9.9 NNE 15 20 8 11 1013.4 1011.8 0.0
30/05:30pm 29.6 27.9 12.5 35 10.2 NNE 13 24 7 13 1013.1 1011.5 0.0
30/05:00pm 29.8 28.4 12.3 34 10.4 NE 11 20 6 11 1013.1 1011.5 0.0
30/04:30pm 30.4 27.8 11.9 32 11.0 NNE 17 22 9 12 1013.0 1011.4 0.0
30/04:00pm 30.8 29.0 9.6 27 12.2 SW 9 15 5 8 1013.1 1011.5 0.0
30/03:30pm 31.7 29.4 10.4 27 12.4 NNW 13 20 7 11 1013.1 1011.5 0.0
30/03:00pm 30.9 29.7 10.3 28 12.0 E 7 11 4 6 1013.5 1011.9 0.0
30/02:30pm 31.5 29.7 10.8 28 12.2 NNW 11 20 6 11 1013.7 1012.2 0.0
30/02:00pm 31.5 29.8 12.3 31 11.5 NW 13 22 7 12 1014.3 1012.7 0.0
30/01:30pm 30.1 29.8 13.4 36 10.1 ENE 7 24 4 13 1014.8 1013.2 0.0
30/01:00pm 29.9 28.2 13.6 36 9.9 WNW 15 20 8 11 1015.2 1013.6 0.0
30/12:30pm 29.2 26.9 14.2 40 9.2 NW 19 20 10 11 1015.9 1014.4 0.0
30/12:00pm 28.8 28.6 14.6 42 8.7 N 9 20 5 11 1016.5 1014.9 0.0
30/11:30am 27.8 26.6 14.1 43 8.3 N 13 20 7 11 1017.1 1015.5 0.0
30/11:00am 27.3 26.0 14.7 46 7.7 NNW 15 20 8 11 1017.6 1016.0 0.0
30/10:30am 26.3 24.8 15.4 51 6.7 N 17 28 9 15 1018.1 1016.6 0.0
30/10:00am 26.0 25.6 15.1 51 6.7 N 11 20 6 11 1018.5 1017.0 0.0
30/09:30am 23.7 23.7 15.2 59 5.2 NNW 9 17 5 9 1019.0 1017.4 0.0
30/09:00am 23.4 23.4 15.2 60 5.0 NE 9 15 5 8 1019.1 1017.5 0.0
30/08:30am 22.9 23.0 15.5 63 4.5 E 9 17 5 9 1019.3 1017.7 0.0
30/08:00am 21.0 20.6 15.3 70 3.4 ESE 11 17 6 9 1019.4 1017.8 0.0
30/07:30am 20.0 19.1 14.8 72 3.1 ESE 13 19 7 10 1019.4 1017.8 0.0
30/07:00am 20.1 19.7 15.3 74 2.9 SE 11 13 6 7 1019.3 1017.7 0.0
30/06:30am 18.9 18.6 15.4 80 2.1 ESE 11 15 6 8 1019.1 1017.5 0.0
30/06:00am 17.8 17.9 15.4 86 1.4 SSE 9 13 5 7 1018.9 1017.3 0.0
30/05:30am 17.3 17.7 15.3 88 1.2 ESE 7 11 4 6 1018.4 1016.9 0.0
30/05:00am 17.6 18.0 15.2 86 1.4 ESE 7 13 4 7 1018.0 1016.5 0.0
30/04:30am 18.2 18.3 15.5 84 1.6 ESE 9 15 5 8 1017.4 1015.8 0.0
30/04:00am 18.8 18.7 15.9 83 1.8 ESE 11 17 6 9 1017.2 1015.6 0.0
30/03:30am 18.7 18.6 16.1 85 1.6 ESE 11 15 6 8 1017.0 1015.4 0.0
30/03:00am 18.3 18.8 15.6 84 1.6 ESE 7 11 4 6 1017.0 1015.4 0.0
30/02:30am 19.0 19.6 15.7 81 2.0 SE 7 11 4 6 1017.1 1015.5 0.0
30/02:00am 19.0 19.1 15.5 80 2.1 SE 9 11 5 6 1017.2 1015.6 0.0
30/01:30am 19.0 19.1 15.5 80 2.1 SSE 9 13 5 7 1017.3 1015.7 0.0
30/01:00am 18.8 19.1 15.1 79 2.2 SE 7 11 4 6 1017.5 1015.9 0.0
30/12:30am 18.9 18.6 15.4 80 2.1 ESE 11 15 6 8 1017.6 1016.0 0.0
30/12:00am 18.3 17.8 14.8 80 2.1 ESE 11 15 6 8 1017.9 1016.4 0.0
 
Date/Time
EST
Tmp

°C
App
Tmp
°C
Dew
Point
°C
Rel
Hum
%
Delta-T

°C
Wind Press
QNH
hPa
Press
MSL
hPa
Rain
since
9 am
mm
Dir
 
Spd
km/h
Gust
km/h
Spd
kts
Gust
kts
29/11:30pm 18.2 18.8 14.3 78 2.3 ESE 4 9 2 5 1018.2 1016.7 0.0
29/11:00pm 19.1 18.9 14.8 76 2.6 E 9 11 5 6 1018.4 1016.9 0.0
29/10:30pm 19.5 19.4 15.0 75 2.7 E 9 15 5 8 1018.5 1017.0 0.0
29/10:00pm 20.6 19.6 15.6 73 3.0 E 15 20 8 11 1018.3 1016.8 0.0
29/09:30pm 20.7 21.1 16.3 76 2.7 ENE 9 15 5 8 1018.2 1016.7 0.0
29/09:00pm 20.5 20.8 16.1 76 2.7 E 9 15 5 8 1018.0 1016.5 0.0
29/08:30pm 20.8 21.1 16.0 74 2.9 ENE 9 15 5 8 1017.7 1016.2 0.0
29/08:00pm 21.3 20.9 16.3 73 3.1 ENE 13 20 7 11 1017.2 1015.6 0.0
29/07:30pm 22.1 21.9 16.6 71 3.4 ENE 13 30 7 16 1016.6 1015.0 0.0
29/07:00pm 23.1 22.2 16.9 68 3.9 ENE 17 26 9 14 1015.9 1014.4 0.0
29/06:30pm 24.6 24.1 16.8 62 4.9 ENE 15 24 8 13 1015.2 1013.6 0.0
29/06:00pm 26.3 25.3 16.5 54 6.2 ENE 17 26 9 14 1014.7 1013.1 0.0
29/05:30pm 28.5 26.7 15.4 45 8.2 ENE 19 33 10 18 1014.1 1012.5 0.0
29/05:00pm 33.7 30.1 -3.5 9 17.5 SSW 6 9 3 5 1013.1 1011.5 0.0
29/04:30pm 33.6 27.9 -3.6 9 17.5 WSW 17 22 9 12 1012.8 1011.2 0.0
29/04:00pm 34.5 29.3 -2.9 9 17.9 WNW 15 20 8 11 1012.7 1011.1 0.0
29/03:30pm 34.2 29.3 -3.2 9 17.8 SSE 13 17 7 9 1012.7 1011.1 0.0
29/03:00pm 34.2 28.0 -4.7 8 18.1 W 19 28 10 15 1012.8 1011.2 0.0
29/02:30pm 34.6 29.4 -6.2 7 18.5 SW 13 24 7 13 1012.9 1011.3 0.0
29/02:00pm 34.8 28.7 -4.3 8 18.3 WNW 19 26 10 14 1013.1 1011.5 0.0
29/01:30pm 34.3 27.9 -6.4 7 18.4 SSW 19 28 10 15 1013.6 1012.0 0.0
29/01:00pm 34.7 30.1 -4.4 8 18.3 WSW 11 24 6 13 1013.6 1012.0 0.0
29/12:30pm 34.5 28.3 -4.5 8 18.2 SW 19 33 10 18 1014.1 1012.5 0.0
29/12:00pm 34.5 28.9 1.0 12 17.1 S 20 26 11 14 1014.4 1012.8 0.0
29/11:30am 32.7 28.8 -1.6 11 16.6 SSW 9 17 5 9 1014.8 1013.2 0.0
29/11:00am 32.6 27.9 -1.7 11 16.5 SSW 13 20 7 11 1015.3 1013.7 0.0
29/10:30am 31.8 26.3 -2.3 11 16.2 S 17 22 9 12 1015.7 1014.2 0.0
29/10:00am 30.9 26.2 -1.8 12 15.5 S 13 24 7 13 1015.9 1014.4 0.0
29/09:30am 30.1 24.7 -1.3 13 15.0 S 17 30 9 16 1016.1 1014.6 0.0
29/09:00am 28.7 23.8 -0.5 15 14.0 S 15 22 8 12 1016.0 1014.5 0.0
29/08:30am 28.0 22.3 -1.0 15 13.7 S 19 26 10 14 1016.0 1014.5 0.0
29/08:00am 27.4 21.6 -1.5 15 13.5 S 19 26 10 14 1015.8 1014.3 0.0
29/07:30am 26.4 21.5 -0.6 17 12.7 S 15 20 8 11 1015.8 1014.3 0.0
29/07:00am 23.8 20.4 2.0 24 10.5 SW 9 11 5 6 1015.7 1014.2 0.0
29/06:30am 19.1 17.2 2.9 34 7.7 SSW 2 7 1 4 1015.6 1014.0 0.0
29/06:00am 16.1 14.7 3.5 43 5.9 CALM 0 0 0 0 1015.4 1013.8 0.0
29/05:30am 14.4 13.0 3.8 49 5.0 CALM 0 0 0 0 1015.1 1013.5 0.0
29/05:00am 14.4 12.1 2.6 45 5.4 NNW 4 9 2 5 1014.9 1013.3 0.0
29/04:30am 16.5 12.1 0.2 33 7.2 S 13 13 7 7 1014.6 1013.0 0.0
29/04:00am 16.9 12.4 -0.3 31 7.5 SSW 13 15 7 8 1014.4 1012.8 0.0
29/03:30am 18.3 13.7 -1.0 27 8.4 SSW 13 15 7 8 1014.4 1012.8 0.0
29/03:00am 20.9 15.0 -1.0 23 9.8 S 20 26 11 14 1014.1 1012.5 0.0
29/02:30am 17.4 12.3 0.6 32 7.5 S 17 19 9 10 1014.0 1012.4 0.0
29/02:00am 16.1 11.2 2.2 39 6.4 S 17 17 9 9 1014.1 1012.5 0.0
29/01:30am 15.1 11.7 4.2 48 5.2 SSW 11 13 6 7 1014.2 1012.6 0.0
29/01:00am 18.0 15.3 3.9 39 6.8 SE 7 9 4 5 1014.4 1012.8 0.0
29/12:30am 18.4 18.6 10.5 60 4.3 CALM 0 0 0 0 1014.5 1012.9 0.0
29/12:00am 18.9 18.6 8.6 51 5.5 CALM 0 0 0 0 1014.6 1013.0 0.0
 
Date/Time
EST
Tmp

°C
App
Tmp
°C
Dew
Point
°C
Rel
Hum
%
Delta-T

°C
Wind Press
QNH
hPa
Press
MSL
hPa
Rain
since
9 am
mm
Dir
 
Spd
km/h
Gust
km/h
Spd
kts
Gust
kts
28/11:30pm 21.0 18.7 5.0 35 8.0 E 6 9 3 5 1014.6 1013.0 0.0
28/11:00pm 22.3 19.9 6.9 37 8.1 S 9 11 5 6 1014.3 1012.7 0.0

Latest Capital City Observations: Canberra | Sydney | Melbourne | Brisbane | Adelaide | Perth | Hobart | Darwin

Other Formats:

Comma delimited format used in spreadsheet applications
http://www.bom.gov.au/fwo/IDQ60901/IDQ60901.94549.axf

JavaScript Object Notation format (JSON) in row-major order
http://www.bom.gov.au/fwo/IDQ60901/IDQ60901.94549.json